createdAt,value
2017-10-15T00:01:30.646Z,53.74
2017-10-15T00:04:05.874Z,53.85
2017-10-15T00:06:42.523Z,53.95
2017-10-15T00:09:18.421Z,54.11
2017-10-15T00:11:53.315Z,54.10
2017-10-15T00:14:30.445Z,53.89
2017-10-15T00:17:04.924Z,53.90
2017-10-15T00:19:41.428Z,53.72
2017-10-15T00:22:16.712Z,53.69
2017-10-15T00:24:51.598Z,53.75
2017-10-15T00:27:26.798Z,53.76
2017-10-15T00:30:02.282Z,53.78
2017-10-15T00:32:37.574Z,53.83
2017-10-15T00:35:13.171Z,54.10
2017-10-15T00:37:47.611Z,54.27
2017-10-15T00:40:23.038Z,54.44
2017-10-15T00:42:58.503Z,54.57
2017-10-15T00:45:33.958Z,54.57
2017-10-15T00:48:09.314Z,54.51
2017-10-15T00:50:44.000Z,54.55
2017-10-15T00:53:19.617Z,54.67
2017-10-15T00:55:57.545Z,54.85
2017-10-15T00:58:33.016Z,55.13
2017-10-15T01:01:07.582Z,55.25
2017-10-15T01:03:42.316Z,55.25
2017-10-15T01:06:17.176Z,55.36
2017-10-15T01:08:52.575Z,55.66
2017-10-15T01:11:28.186Z,55.87
2017-10-15T01:14:02.865Z,55.76
2017-10-15T01:16:39.459Z,55.92
2017-10-15T01:19:14.066Z,56.16
2017-10-15T01:21:52.011Z,56.16
2017-10-15T01:24:26.862Z,56.47
2017-10-15T01:27:02.031Z,56.38
2017-10-15T01:29:36.923Z,56.07
2017-10-15T01:32:14.085Z,56.16
2017-10-15T01:34:49.434Z,56.55
2017-10-15T01:37:24.313Z,56.36
2017-10-15T01:39:59.692Z,56.45
2017-10-15T01:42:34.726Z,55.95
2017-10-15T01:45:10.174Z,56.21
2017-10-15T01:47:46.019Z,56.95
2017-10-15T01:50:20.959Z,57.00
2017-10-15T01:52:55.713Z,56.93
2017-10-15T01:55:30.434Z,56.51
2017-10-15T01:58:05.864Z,56.03
2017-10-15T02:00:41.266Z,56.50
2017-10-15T02:03:16.922Z,57.61
2017-10-15T02:05:52.143Z,59.26
2017-10-15T02:08:27.644Z,60.16
2017-10-15T02:11:02.250Z,58.04
2017-10-15T02:13:37.810Z,56.63
2017-10-15T02:16:12.466Z,57.03
2017-10-15T02:18:47.825Z,55.50
2017-10-15T02:21:22.517Z,54.36
2017-10-15T02:23:58.253Z,55.15
2017-10-15T02:26:32.716Z,54.91
2017-10-15T02:29:07.802Z,59.09
2017-10-15T02:31:43.585Z,59.71
2017-10-15T02:34:19.790Z,60.87
2017-10-15T02:36:54.475Z,60.51
2017-10-15T02:39:29.191Z,57.97
2017-10-15T02:42:04.560Z,56.96
2017-10-15T02:44:39.205Z,58.01
2017-10-15T02:47:13.631Z,58.17
2017-10-15T02:49:48.308Z,58.94
2017-10-15T02:52:22.884Z,60.99
2017-10-15T02:54:57.774Z,60.59
2017-10-15T02:57:33.079Z,61.15
2017-10-15T03:00:07.999Z,56.72
2017-10-15T03:02:43.328Z,54.16
2017-10-15T03:05:21.222Z,51.54
2017-10-15T03:07:56.420Z,50.07
2017-10-15T03:10:32.702Z,49.67
2017-10-15T03:13:07.465Z,49.22
2017-10-15T03:15:42.382Z,48.87
2017-10-15T03:18:16.932Z,48.21
2017-10-15T03:20:52.934Z,47.99
2017-10-15T03:23:27.616Z,47.32
2017-10-15T03:26:02.169Z,46.96
2017-10-15T03:28:36.701Z,46.64
2017-10-15T03:31:13.701Z,46.46
2017-10-15T03:33:48.238Z,46.38
2017-10-15T03:36:22.843Z,45.79
2017-10-15T03:38:57.726Z,45.62
2017-10-15T03:41:33.195Z,46.90
2017-10-15T03:44:07.891Z,45.82
2017-10-15T03:46:44.077Z,48.23
2017-10-15T03:49:19.009Z,50.32
2017-10-15T03:51:54.422Z,51.52
2017-10-15T03:54:29.271Z,51.47
2017-10-15T03:57:04.618Z,52.44
2017-10-15T03:59:39.561Z,52.44
2017-10-15T04:02:06.330Z,51.15
2017-10-15T04:04:41.768Z,48.93
2017-10-15T04:07:16.700Z,51.59
2017-10-15T04:09:51.309Z,52.86
2017-10-15T04:12:27.539Z,53.11
2017-10-15T04:15:02.569Z,50.98
2017-10-15T04:17:38.979Z,51.86
2017-10-15T04:20:13.594Z,51.81
2017-10-15T04:22:49.866Z,52.00
2017-10-15T04:25:24.553Z,52.31
2017-10-15T04:28:00.261Z,52.14
2017-10-15T04:30:35.560Z,52.50
2017-10-15T04:33:11.057Z,53.02
2017-10-15T04:35:45.724Z,53.50
2017-10-15T04:38:23.686Z,54.02
2017-10-15T04:40:58.882Z,54.31
2017-10-15T04:43:35.991Z,54.73
2017-10-15T04:46:10.692Z,55.02
2017-10-15T04:48:47.190Z,55.85
2017-10-15T04:51:21.776Z,56.59
2017-10-15T04:53:56.367Z,57.66
2017-10-15T04:56:31.843Z,57.58
2017-10-15T04:59:06.371Z,56.93
2017-10-15T05:01:40.796Z,56.80
2017-10-15T05:04:15.392Z,55.93
2017-10-15T05:06:50.777Z,56.82
2017-10-15T05:09:27.857Z,56.92
2017-10-15T05:12:02.774Z,58.43
2017-10-15T05:14:37.377Z,59.13
2017-10-15T05:17:13.847Z,59.89
2017-10-15T05:19:49.165Z,60.80
2017-10-15T05:22:23.639Z,60.90
2017-10-15T05:24:58.160Z,60.42
2017-10-15T05:27:33.681Z,60.50
2017-10-15T05:30:08.171Z,60.34
2017-10-15T05:32:43.596Z,60.22
2017-10-15T05:35:19.145Z,60.04
2017-10-15T05:37:53.710Z,59.89
2017-10-15T05:40:28.275Z,59.56
2017-10-15T05:43:02.845Z,59.19
2017-10-15T05:45:38.470Z,59.24
2017-10-15T05:48:13.857Z,58.99
2017-10-15T05:50:50.897Z,58.67
2017-10-15T05:53:25.695Z,58.97
2017-10-15T05:56:00.324Z,58.68
2017-10-15T05:58:37.492Z,58.62
2017-10-15T06:01:05.252Z,59.30
2017-10-15T06:03:40.488Z,59.92
2017-10-15T06:06:15.604Z,59.37
2017-10-15T06:08:51.047Z,59.85
2017-10-15T06:11:26.658Z,59.51
2017-10-15T06:14:02.092Z,60.54
2017-10-15T06:16:37.380Z,59.80
2017-10-15T06:19:12.691Z,59.83
2017-10-15T06:21:50.192Z,60.17
2017-10-15T06:24:25.610Z,60.35
2017-10-15T06:27:01.281Z,59.62
2017-10-15T06:29:36.676Z,60.20
2017-10-15T06:32:12.100Z,59.20
2017-10-15T06:34:46.573Z,59.25
2017-10-15T06:37:21.262Z,58.96
2017-10-15T06:39:56.746Z,58.64
2017-10-15T06:42:32.482Z,59.28
2017-10-15T06:45:07.065Z,59.65
2017-10-15T06:47:41.701Z,58.84
2017-10-15T06:50:18.040Z,58.01
2017-10-15T06:52:55.942Z,58.27
2017-10-15T06:55:30.864Z,57.71
2017-10-15T06:58:08.549Z,56.40
2017-10-15T07:00:43.173Z,56.33
2017-10-15T07:03:21.390Z,55.92
2017-10-15T07:05:56.339Z,54.47
2017-10-15T07:08:31.839Z,54.05
2017-10-15T07:11:07.319Z,54.19
2017-10-15T07:13:43.001Z,53.29
2017-10-15T07:16:18.419Z,52.47
2017-10-15T07:18:53.953Z,51.83
2017-10-15T07:21:29.439Z,51.57
2017-10-15T07:24:05.792Z,51.95
2017-10-15T07:26:40.472Z,51.29
2017-10-15T07:29:16.452Z,51.76
2017-10-15T07:31:50.978Z,51.68
2017-10-15T07:34:25.753Z,51.00
2017-10-15T07:37:01.067Z,50.71
2017-10-15T07:39:36.928Z,50.44
2017-10-15T07:42:12.278Z,51.70
2017-10-15T07:44:48.531Z,51.73
2017-10-15T07:47:23.446Z,52.50
2017-10-15T07:49:59.203Z,52.06
2017-10-15T07:52:34.310Z,51.33
2017-10-15T07:55:09.093Z,50.81
2017-10-15T07:57:44.598Z,50.06
2017-10-15T08:00:21.774Z,49.08
2017-10-15T08:02:48.517Z,48.48
2017-10-15T08:05:24.205Z,48.40
2017-10-15T08:07:58.886Z,48.35
2017-10-15T08:10:38.528Z,48.34
2017-10-15T08:13:13.735Z,48.40
2017-10-15T08:15:48.258Z,48.73
2017-10-15T08:18:22.946Z,49.42
2017-10-15T08:20:58.373Z,50.23
2017-10-15T08:23:33.014Z,50.71
2017-10-15T08:26:08.560Z,50.93
2017-10-15T08:28:43.796Z,51.13
2017-10-15T08:31:19.340Z,51.72
2017-10-15T08:33:54.724Z,51.75
2017-10-15T08:36:29.300Z,51.57
2017-10-15T08:39:04.906Z,51.48
2017-10-15T08:41:41.128Z,50.97
2017-10-15T08:44:15.733Z,50.22
2017-10-15T08:46:51.109Z,50.89
2017-10-15T08:49:25.899Z,50.66
2017-10-15T08:52:01.097Z,50.61
2017-10-15T08:54:36.457Z,50.31
2017-10-15T08:57:11.246Z,50.24
2017-10-15T08:59:46.706Z,50.07
2017-10-15T09:02:24.566Z,49.82
2017-10-15T09:04:59.580Z,50.17
2017-10-15T09:07:35.902Z,50.13
2017-10-15T09:10:11.053Z,49.86
2017-10-15T09:12:45.870Z,49.68
2017-10-15T09:15:21.106Z,49.05
2017-10-15T09:18:00.027Z,49.09
2017-10-15T09:20:35.138Z,49.16
2017-10-15T09:23:10.673Z,48.42
2017-10-15T09:25:45.946Z,47.92
2017-10-15T09:28:20.640Z,47.85
2017-10-15T09:30:56.142Z,47.71
2017-10-15T09:33:30.807Z,47.75
2017-10-15T09:36:06.218Z,47.38
2017-10-15T09:38:41.095Z,46.42
2017-10-15T09:41:16.536Z,46.37
2017-10-15T09:43:51.244Z,45.47
2017-10-15T09:46:28.873Z,45.90
2017-10-15T09:49:04.325Z,46.02
2017-10-15T09:51:39.032Z,45.33
2017-10-15T09:54:14.623Z,45.15
2017-10-15T09:56:49.265Z,43.56
2017-10-15T09:59:24.990Z,43.73
2017-10-15T10:05:04.868Z,43.93
2017-10-15T10:07:39.573Z,42.97
2017-10-15T10:10:17.184Z,43.04
2017-10-15T10:12:52.465Z,42.85
2017-10-15T10:15:27.232Z,42.82
2017-10-15T10:18:01.687Z,42.02
2017-10-15T10:20:38.223Z,39.15
2017-10-15T10:23:12.886Z,33.73
2017-10-15T10:25:49.629Z,33.25
2017-10-15T10:28:24.578Z,36.97
2017-10-15T10:30:59.971Z,34.21
2017-10-15T10:33:34.770Z,31.07
2017-10-15T10:36:09.330Z,31.60
2017-10-15T10:38:44.034Z,31.49
2017-10-15T10:41:21.062Z,31.38
2017-10-15T10:43:55.885Z,29.82
2017-10-15T10:46:32.112Z,30.50
2017-10-15T10:49:06.772Z,30.34
2017-10-15T10:51:41.348Z,30.61
2017-10-15T10:54:15.959Z,30.54
2017-10-15T10:56:52.610Z,30.06
2017-10-15T10:59:33.521Z,30.54
2017-10-15T11:02:08.266Z,30.23
2017-10-15T11:04:42.816Z,30.23
2017-10-15T11:07:17.450Z,28.33
2017-10-15T11:09:52.067Z,29.37
2017-10-15T11:12:28.005Z,29.51
2017-10-15T11:15:03.221Z,29.78
2017-10-15T11:17:39.546Z,29.38
2017-10-15T11:20:15.055Z,29.15
2017-10-15T11:22:50.347Z,28.27
2017-10-15T11:25:25.229Z,28.01
2017-10-15T11:27:59.793Z,29.11
2017-10-15T11:30:34.559Z,29.39
2017-10-15T11:33:09.138Z,28.75
2017-10-15T11:35:43.619Z,28.46
2017-10-15T11:38:19.137Z,28.41
2017-10-15T11:40:53.887Z,28.40
2017-10-15T11:43:29.402Z,28.98
2017-10-15T11:46:03.855Z,28.27
2017-10-15T11:48:39.425Z,27.87
2017-10-15T11:51:14.857Z,28.10
2017-10-15T11:53:51.369Z,28.15
2017-10-15T11:56:25.942Z,27.85
2017-10-15T11:59:01.400Z,27.34
2017-10-15T12:01:28.144Z,28.16
2017-10-15T12:04:03.506Z,28.91
2017-10-15T12:06:38.125Z,28.99
2017-10-15T12:09:16.027Z,28.98
2017-10-15T12:11:50.669Z,28.99
2017-10-15T12:14:26.201Z,29.42
2017-10-15T12:17:03.452Z,28.74
2017-10-15T12:19:38.469Z,28.75
2017-10-15T12:22:13.715Z,28.96
2017-10-15T12:24:48.314Z,29.04
2017-10-15T12:27:22.863Z,29.37
2017-10-15T12:29:58.986Z,29.49
2017-10-15T12:32:33.889Z,29.45
2017-10-15T12:35:08.647Z,29.29
2017-10-15T12:37:44.128Z,29.69
2017-10-15T12:40:19.535Z,29.46
2017-10-15T12:42:54.033Z,29.50
2017-10-15T12:45:28.762Z,29.75
2017-10-15T12:48:04.007Z,29.78
2017-10-15T12:50:41.318Z,29.88
2017-10-15T12:53:15.888Z,29.92
2017-10-15T12:55:51.383Z,29.71
2017-10-15T12:58:26.893Z,29.65
2017-10-15T13:01:04.739Z,30.14
2017-10-15T13:03:39.805Z,30.12
2017-10-15T13:06:14.504Z,30.36
2017-10-15T13:08:49.975Z,30.46
2017-10-15T13:11:25.321Z,30.55
2017-10-15T13:14:00.760Z,30.78
2017-10-15T13:16:36.305Z,31.18
2017-10-15T13:19:12.739Z,31.66
2017-10-15T13:21:49.929Z,31.64
2017-10-15T13:24:24.600Z,32.08
2017-10-15T13:26:59.374Z,32.45
2017-10-15T13:29:34.769Z,32.33
2017-10-15T13:32:14.370Z,32.46
2017-10-15T13:34:50.614Z,32.34
2017-10-15T13:37:26.152Z,32.55
2017-10-15T13:40:00.746Z,32.73
2017-10-15T13:42:37.874Z,32.86
2017-10-15T13:45:12.682Z,32.79
2017-10-15T13:47:47.192Z,33.19
2017-10-15T13:50:21.736Z,33.34
2017-10-15T13:52:57.133Z,33.31
2017-10-15T13:55:31.739Z,33.90
2017-10-15T13:58:07.375Z,33.87
2017-10-15T14:00:42.847Z,34.18
2017-10-15T14:03:11.412Z,34.22
2017-10-15T14:05:46.818Z,34.28
2017-10-15T14:08:22.458Z,34.52
2017-10-15T14:10:57.691Z,34.45
2017-10-15T14:13:32.367Z,34.60
2017-10-15T14:16:07.598Z,34.94
2017-10-15T14:18:48.881Z,35.41
2017-10-15T14:21:23.755Z,35.62
2017-10-15T14:23:59.290Z,35.77
2017-10-15T14:26:34.589Z,35.95
2017-10-15T14:29:09.226Z,35.77
2017-10-15T14:31:44.667Z,35.91
2017-10-15T14:34:20.170Z,36.15
2017-10-15T14:36:55.533Z,36.19
2017-10-15T14:39:34.325Z,36.58
2017-10-15T14:42:09.509Z,36.77
2017-10-15T14:44:46.513Z,36.75
2017-10-15T14:47:21.644Z,36.88
2017-10-15T14:49:57.011Z,37.10
2017-10-15T14:52:31.754Z,37.29
2017-10-15T14:55:10.632Z,37.50
2017-10-15T14:57:45.763Z,37.64
2017-10-15T15:00:21.295Z,37.62
2017-10-15T15:02:56.677Z,37.91
2017-10-15T15:05:31.439Z,38.23
2017-10-15T15:08:05.958Z,38.31
2017-10-15T15:10:41.616Z,38.31
2017-10-15T15:13:16.686Z,38.37
2017-10-15T15:15:51.364Z,38.59
2017-10-15T15:18:25.818Z,38.62
2017-10-15T15:21:02.437Z,38.77
2017-10-15T15:23:36.938Z,38.93
2017-10-15T15:26:13.342Z,39.58
2017-10-15T15:28:47.907Z,39.36
2017-10-15T15:31:23.366Z,39.78
2017-10-15T15:33:58.834Z,39.69
2017-10-15T15:36:33.546Z,39.75
2017-10-15T15:39:08.784Z,39.85
2017-10-15T15:41:44.259Z,40.05
2017-10-15T15:44:18.922Z,40.04
2017-10-15T15:46:54.333Z,40.12
2017-10-15T15:49:29.737Z,40.29
2017-10-15T15:52:05.190Z,40.24
2017-10-15T15:54:40.415Z,40.33
2017-10-15T15:57:17.723Z,40.55
2017-10-15T15:59:52.345Z,40.51
2017-10-15T16:02:19.143Z,40.59
2017-10-15T16:04:54.102Z,40.60
2017-10-15T16:07:28.692Z,40.76
2017-10-15T16:10:04.297Z,40.79
2017-10-15T16:12:44.422Z,40.73
2017-10-15T16:15:19.240Z,40.63
2017-10-15T16:17:59.142Z,40.82
2017-10-15T16:20:35.286Z,40.88
2017-10-15T16:23:12.882Z,41.06
2017-10-15T16:25:47.785Z,41.00
2017-10-15T16:28:24.177Z,41.19
2017-10-15T16:30:58.910Z,41.25
2017-10-15T16:33:37.931Z,41.66
2017-10-15T16:36:13.859Z,42.69
2017-10-15T16:38:48.579Z,42.01
2017-10-15T16:41:23.902Z,42.43
2017-10-15T16:43:59.677Z,41.94
2017-10-15T16:46:35.004Z,42.13
2017-10-15T16:49:12.234Z,41.68
2017-10-15T16:51:49.770Z,41.65
2017-10-15T16:54:27.239Z,42.02
2017-10-15T16:57:04.670Z,42.32
2017-10-15T16:59:40.194Z,42.36
2017-10-15T17:02:15.189Z,42.43
2017-10-15T17:04:52.612Z,42.59
2017-10-15T17:07:28.223Z,43.34
2017-10-15T17:10:05.477Z,43.24
2017-10-15T17:12:41.109Z,43.42
2017-10-15T17:15:18.148Z,43.05
2017-10-15T17:17:54.246Z,42.71
2017-10-15T17:20:21.151Z,42.60
2017-10-15T17:22:56.172Z,42.32
2017-10-15T17:25:33.060Z,42.29
2017-10-15T17:28:08.337Z,42.54
2017-10-15T17:30:44.678Z,42.83
2017-10-15T17:33:21.532Z,42.72
2017-10-15T17:35:56.566Z,42.64
2017-10-15T17:38:31.918Z,42.88
2017-10-15T17:41:07.569Z,43.09
2017-10-15T17:43:42.824Z,43.02
2017-10-15T17:46:18.236Z,43.16
2017-10-15T17:48:52.873Z,43.53
2017-10-15T17:51:28.637Z,43.72
2017-10-15T17:54:04.026Z,43.32
2017-10-15T17:56:46.116Z,43.74
2017-10-15T17:59:21.328Z,43.94
2017-10-15T18:01:49.221Z,44.12
2017-10-15T18:04:26.176Z,44.35
2017-10-15T18:07:02.884Z,45.18
2017-10-15T18:09:37.558Z,45.95
2017-10-15T18:12:13.217Z,46.41
2017-10-15T18:14:47.874Z,46.66
2017-10-15T18:17:23.400Z,47.34
2017-10-15T18:19:58.942Z,47.19
2017-10-15T18:22:38.813Z,47.09
2017-10-15T18:25:14.183Z,46.92
2017-10-15T18:27:48.912Z,46.95
2017-10-15T18:30:24.362Z,46.84
2017-10-15T18:32:51.147Z,46.90
2017-10-15T18:35:26.443Z,46.65
2017-10-15T18:38:06.453Z,46.30
2017-10-15T18:40:43.953Z,46.45
2017-10-15T18:46:00.640Z,46.24
2017-10-15T18:48:35.479Z,46.26
2017-10-15T18:51:11.258Z,46.64
2017-10-15T18:53:45.989Z,46.29
2017-10-15T18:56:12.718Z,46.30
2017-10-15T18:58:49.210Z,46.13
2017-10-15T19:01:23.956Z,46.44
2017-10-15T19:03:58.617Z,46.46
2017-10-15T19:06:34.126Z,46.40
2017-10-15T19:09:13.327Z,46.57
2017-10-15T19:11:48.159Z,46.79
2017-10-15T19:14:25.585Z,46.94
2017-10-15T19:17:01.391Z,47.42
2017-10-15T19:19:39.933Z,47.74
2017-10-15T19:22:14.951Z,47.62
2017-10-15T19:24:49.585Z,47.92
2017-10-15T19:27:24.139Z,48.24
2017-10-15T19:29:58.998Z,49.27
2017-10-15T19:32:25.862Z,51.14
2017-10-15T19:35:01.985Z,51.43
2017-10-15T19:37:36.688Z,51.97
2017-10-15T19:40:13.413Z,51.97
2017-10-15T19:42:48.152Z,51.81
2017-10-15T19:45:23.506Z,51.93
2017-10-15T19:47:57.973Z,50.88
2017-10-15T19:50:34.923Z,50.42
2017-10-15T19:53:10.123Z,50.57
2017-10-15T19:55:46.557Z,50.84
2017-10-15T19:58:21.148Z,50.91
2017-10-15T20:00:56.706Z,50.60
2017-10-15T20:03:23.533Z,50.55
2017-10-15T20:05:59.291Z,50.60
2017-10-15T20:08:34.620Z,50.87
2017-10-15T20:11:01.451Z,51.14
2017-10-15T20:13:36.935Z,51.11
2017-10-15T20:16:12.571Z,50.89
2017-10-15T20:18:47.895Z,51.93
2017-10-15T20:21:25.415Z,54.40
2017-10-15T20:24:00.135Z,55.36
2017-10-15T20:26:38.364Z,56.92
2017-10-15T20:29:12.985Z,57.50
2017-10-15T20:31:49.254Z,57.87
2017-10-15T20:34:24.509Z,57.55
2017-10-15T20:36:59.894Z,57.85
2017-10-15T20:39:35.303Z,58.00
2017-10-15T20:42:10.894Z,57.96
2017-10-15T20:44:46.337Z,57.99
2017-10-15T20:47:21.198Z,57.88
2017-10-15T20:49:56.349Z,57.81
2017-10-15T20:52:31.783Z,58.05
2017-10-15T20:55:06.442Z,58.12
2017-10-15T20:57:42.790Z,58.10
2017-10-15T21:00:19.131Z,58.72
2017-10-15T21:02:55.464Z,58.98
2017-10-15T21:05:30.070Z,58.91
2017-10-15T21:08:05.645Z,56.74
2017-10-15T21:10:40.295Z,57.41
2017-10-15T21:13:15.817Z,57.78
2017-10-15T21:15:51.189Z,56.39
2017-10-15T21:18:25.762Z,55.62
2017-10-15T21:21:01.320Z,55.28
2017-10-15T21:23:37.709Z,54.97
2017-10-15T21:26:13.207Z,54.47
2017-10-15T21:28:48.787Z,54.12
2017-10-15T21:31:24.172Z,53.97
2017-10-15T21:33:59.684Z,53.63
2017-10-15T21:36:35.103Z,53.65
2017-10-15T21:39:10.628Z,53.51
2017-10-15T21:41:46.059Z,53.59
2017-10-15T21:44:20.804Z,53.72
2017-10-15T21:46:56.099Z,53.73
2017-10-15T21:49:32.448Z,53.97
2017-10-15T21:52:08.086Z,53.95
2017-10-15T21:54:44.251Z,54.07
2017-10-15T21:57:20.853Z,54.07
2017-10-15T21:59:57.757Z,54.34
2017-10-15T22:02:24.493Z,54.50
2017-10-15T22:04:59.141Z,54.69
2017-10-15T22:07:34.113Z,54.60
2017-10-15T22:10:09.098Z,54.34
2017-10-15T22:12:43.583Z,54.35
2017-10-15T22:15:18.565Z,54.11
2017-10-15T22:17:53.462Z,53.73
2017-10-15T22:23:44.800Z,52.88
2017-10-15T22:26:20.398Z,52.28
2017-10-15T22:28:55.788Z,51.89
2017-10-15T22:31:32.214Z,51.61
2017-10-15T22:34:06.890Z,51.46
2017-10-15T22:36:42.467Z,51.37
2017-10-15T22:39:17.217Z,51.06
2017-10-15T22:41:51.824Z,50.94
2017-10-15T22:44:26.330Z,50.94
2017-10-15T22:47:02.002Z,50.59
2017-10-15T22:49:37.449Z,50.57
2017-10-15T22:52:12.209Z,50.56
2017-10-15T22:54:47.667Z,50.77
2017-10-15T22:57:22.134Z,50.67
2017-10-15T22:59:57.791Z,50.81
2017-10-15T23:02:34.902Z,50.85
2017-10-15T23:05:09.832Z,50.96
2017-10-15T23:07:48.247Z,50.94
2017-10-15T23:10:23.395Z,51.05
2017-10-15T23:12:59.853Z,51.16
2017-10-15T23:15:35.145Z,51.25
2017-10-15T23:18:12.371Z,51.47
2017-10-15T23:20:47.526Z,51.47
2017-10-15T23:23:22.536Z,51.48
2017-10-15T23:25:57.802Z,51.71
2017-10-15T23:28:34.576Z,51.96
2017-10-15T23:31:11.270Z,52.09
2017-10-15T23:33:47.601Z,52.23
2017-10-15T23:36:22.314Z,52.43
2017-10-15T23:38:59.213Z,52.61
2017-10-15T23:41:33.920Z,52.89
2017-10-15T23:44:08.663Z,53.13
2017-10-15T23:46:43.283Z,53.36
2017-10-15T23:49:19.487Z,53.65
2017-10-15T23:51:54.010Z,53.70
2017-10-15T23:54:30.427Z,54.07
2017-10-15T23:57:05.074Z,54.11
2017-10-15T23:59:42.732Z,54.33
